Time;durP1;ratioP1;P1;durP2;ratioP2;P2;SDS_P1;SDS_P2;PMS_P1;PMS_P2;Temp;Humidity;BMP_temperature;BMP_pressure;BME280_temperature;BME280_humidity;BME280_pressure;Samples;Min_cycle;Max_cycle;Signal;HPM_P1;HPM_P2
2023/09/16 00:00:46;;;;;;;7.10;5.93;;;;;;;16.30;100.00;101617.22;4928335;29;20040;-78
2023/09/16 00:03:14;;;;;;;7.47;5.63;;;;;;;16.27;100.00;101622.53;4917308;29;20686;-77
2023/09/16 00:05:42;;;;;;;7.07;6.47;;;;;;;16.26;100.00;101619.94;4897590;29;20051;-78
2023/09/16 00:08:10;;;;;;;7.32;6.63;;;;;;;16.24;100.00;101617.28;4908885;29;20078;-76
2023/09/16 00:10:39;;;;;;;7.75;6.95;;;;;;;16.20;100.00;101612.88;4949426;28;20043;-77
2023/09/16 00:13:06;;;;;;;8.75;6.25;;;;;;;16.17;100.00;101612.91;4932876;29;20067;-78
2023/09/16 00:15:35;;;;;;;10.23;6.80;;;;;;;16.13;100.00;101616.47;4923661;29;20056;-78
2023/09/16 00:18:03;;;;;;;6.63;6.03;;;;;;;16.09;100.00;101614.75;4894772;29;20125;-77
2023/09/16 00:20:30;;;;;;;9.60;7.20;;;;;;;16.05;100.00;101615.63;4942891;29;20043;-77
2023/09/16 00:22:58;;;;;;;9.00;6.95;;;;;;;15.99;100.00;101611.22;4896399;28;20513;-77
2023/09/16 00:25:26;;;;;;;9.65;7.18;;;;;;;15.94;100.00;101605.97;4961157;28;20443;-77
2023/09/16 00:27:54;;;;;;;8.32;7.35;;;;;;;15.89;100.00;101604.22;4893924;29;20047;-77
2023/09/16 00:30:22;;;;;;;11.27;7.13;;;;;;;15.85;100.00;101610.47;4935873;29;20059;-77
2023/09/16 00:32:49;;;;;;;7.95;6.80;;;;;;;15.81;100.00;101606.06;4954935;28;20059;-78
2023/09/16 00:35:17;;;;;;;10.60;7.38;;;;;;;15.75;100.00;101599.03;4906696;29;20787;-77
2023/09/16 00:37:46;;;;;;;8.93;6.68;;;;;;;15.71;100.00;101597.25;4930101;29;20058;-78
2023/09/16 00:40:14;;;;;;;9.40;7.17;;;;;;;15.67;100.00;101595.47;4869594;29;20711;-77
2023/09/16 00:42:42;;;;;;;8.50;7.30;;;;;;;15.62;100.00;101591.97;4910103;29;20303;-78
2023/09/16 00:45:10;;;;;;;7.95;6.80;;;;;;;15.57;100.00;101595.53;4907301;29;20056;-78
2023/09/16 00:47:42;;;;;;;10.73;8.63;;;;;;;15.53;100.00;101583.16;4911415;29;20130;-77
2023/09/16 00:50:12;;;;;;;8.43;6.95;;;;;;;15.49;100.00;101592.03;4907104;29;20043;-77
2023/09/16 00:52:49;;;;;;;11.77;7.88;;;;;;;15.44;100.00;101583.19;4917404;29;20422;-77
2023/09/16 00:55:16;;;;;;;7.88;7.07;;;;;;;15.40;100.00;101584.97;4870594;29;20138;-77
2023/09/16 00:57:47;;;;;;;11.43;6.90;;;;;;;15.35;100.00;101581.50;4904440;29;20071;-78
2023/09/16 01:00:16;;;;;;;8.25;7.28;;;;;;;15.33;100.00;101582.38;4893784;29;20055;-78
2023/09/16 01:02:45;;;;;;;9.68;8.05;;;;;;;15.29;100.00;101580.63;4888112;29;20399;-78
2023/09/16 01:05:17;;;;;;;10.32;7.93;;;;;;;15.25;100.00;101577.09;4886510;29;20040;-78
2023/09/16 01:07:49;;;;;;;9.52;7.72;;;;;;;15.21;100.00;101578.88;4946040;29;20044;-78
2023/09/16 01:10:20;;;;;;;8.90;8.10;;;;;;;15.17;100.00;101569.16;4904643;28;20098;-77
2023/09/16 01:12:50;;;;;;;10.57;9.20;;;;;;;15.14;100.00;101566.53;4913664;29;20055;-77
2023/09/16 01:15:20;;;;;;;9.00;7.23;;;;;;;15.13;100.00;101571.84;4913729;29;20799;-78
2023/09/16 01:17:59;;;;;;;10.63;8.60;;;;;;;15.10;100.00;101563.91;4898038;29;20553;-78
2023/09/16 01:20:28;;;;;;;11.23;9.20;;;;;;;15.07;100.00;101570.09;4917467;29;20071;-77
2023/09/16 01:22:56;;;;;;;11.68;9.35;;;;;;;15.05;100.00;101566.56;4912094;29;20137;-77
2023/09/16 01:25:27;;;;;;;12.95;8.82;;;;;;;15.03;100.00;101552.44;4914839;29;20768;-77
2023/09/16 01:27:56;;;;;;;9.48;8.35;;;;;;;14.99;100.00;101551.56;4870272;29;20058;-77
2023/09/16 01:30:28;;;;;;;10.00;9.00;;;;;;;14.97;100.00;101555.09;4914084;29;20059;-76
2023/09/16 01:33:09;;;;;;;12.13;9.73;;;;;;;14.94;100.00;101552.47;4911792;29;20052;-77
2023/09/16 01:35:39;;;;;;;10.20;9.10;;;;;;;14.91;100.00;101555.13;4918675;29;20043;-78
2023/09/16 01:38:10;;;;;;;9.90;8.82;;;;;;;14.88;100.00;101555.16;4927556;29;20055;-77
2023/09/16 01:40:38;;;;;;;9.95;8.75;;;;;;;14.85;100.00;101552.50;4931923;29;20040;-77
2023/09/16 01:43:07;;;;;;;11.48;9.18;;;;;;;14.82;100.00;101558.72;4900657;28;20048;-78
2023/09/16 01:45:42;;;;;;;10.32;8.93;;;;;;;14.80;100.00;101556.06;4912212;29;20044;-77
2023/09/16 01:48:11;;;;;;;10.07;9.10;;;;;;;14.77;100.00;101557.81;4908563;29;20074;-77
2023/09/16 01:50:38;;;;;;;13.18;9.23;;;;;;;14.75;100.00;101564.91;4898796;29;20425;-78
2023/09/16 01:53:07;;;;;;;10.32;9.23;;;;;;;14.73;100.00;101561.38;4872640;29;20048;-77
2023/09/16 01:55:34;;;;;;;23.08;10.20;;;;;;;14.70;100.00;101551.63;4927213;29;20052;-78
2023/09/16 01:58:02;;;;;;;13.48;10.23;;;;;;;14.69;100.00;101551.63;4891647;29;20043;-77
2023/09/16 02:00:30;;;;;;;14.23;9.80;;;;;;;14.68;100.00;101552.53;4944479;29;20062;-77
2023/09/16 02:02:58;;;;;;;16.77;10.20;;;;;;;14.65;100.00;101552.53;4910855;29;20558;-77
2023/09/16 02:05:26;;;;;;;11.50;9.75;;;;;;;14.63;100.00;101552.56;4928845;29;20055;-77
2023/09/16 02:07:54;;;;;;;10.57;9.48;;;;;;;14.62;100.00;101550.78;4878777;29;20398;-77
2023/09/16 02:10:21;;;;;;;15.70;10.55;;;;;;;14.61;100.00;101549.00;4911427;29;20051;-78
2023/09/16 02:12:49;;;;;;;12.18;9.45;;;;;;;14.59;100.00;101553.44;4875833;29;20055;-77
2023/09/16 02:15:17;;;;;;;11.30;10.10;;;;;;;14.59;100.00;101545.47;4890713;29;20048;-77
2023/09/16 02:17:45;;;;;;;11.43;10.00;;;;;;;14.58;100.00;101552.56;4911983;29;20047;-77
2023/09/16 02:20:12;;;;;;;13.90;11.40;;;;;;;14.58;100.00;101549.91;4921039;29;20048;-77
2023/09/16 02:22:41;;;;;;;12.43;10.80;;;;;;;14.57;100.00;101550.81;4916779;29;20043;-77
2023/09/16 02:25:09;;;;;;;12.65;9.90;;;;;;;14.57;100.00;101541.94;4925343;29;20051;-77
2023/09/16 02:27:39;;;;;;;13.35;10.52;;;;;;;14.59;100.00;101548.13;4911700;29;20419;-78
2023/09/16 02:30:07;;;;;;;13.40;9.43;;;;;;;14.59;100.00;101558.75;4849984;29;20055;-78
2023/09/16 02:32:36;;;;;;;14.25;10.20;;;;;;;14.59;100.00;101550.78;4891142;29;20052;-78
2023/09/16 02:35:03;;;;;;;11.93;10.52;;;;;;;14.58;100.00;101546.38;4918384;29;20059;-77
2023/09/16 02:37:31;;;;;;;13.35;11.38;;;;;;;14.57;100.00;101552.56;4910236;29;20162;-77
2023/09/16 02:40:00;;;;;;;12.90;10.82;;;;;;;14.55;100.00;101549.00;4896280;29;20062;-76
2023/09/16 02:42:28;;;;;;;20.38;11.82;;;;;;;14.53;100.00;101553.41;4892095;29;20051;-76
2023/09/16 02:44:55;;;;;;;12.82;11.23;;;;;;;14.52;100.00;101557.84;4872476;29;20051;-77
2023/09/16 02:47:24;;;;;;;11.95;10.45;;;;;;;14.52;100.00;101551.69;4925831;29;20047;-77
2023/09/16 02:49:52;;;;;;;14.82;11.98;;;;;;;14.51;100.00;101549.88;4881728;29;20521;-76
2023/09/16 02:52:20;;;;;;;17.73;10.68;;;;;;;14.50;100.00;101548.09;4910704;29;20557;-77
2023/09/16 02:54:48;;;;;;;14.05;12.55;;;;;;;14.47;100.00;101545.47;4894158;29;20047;-76
2023/09/16 02:57:15;;;;;;;16.67;11.45;;;;;;;14.47;100.00;101549.00;4926242;29;20055;-77
2023/09/16 02:59:43;;;;;;;13.55;10.75;;;;;;;14.46;100.00;101554.31;4910709;29;20048;-77
2023/09/16 03:02:12;;;;;;;12.27;9.98;;;;;;;14.45;100.00;101534.00;4869952;29;20051;-77
2023/09/16 03:04:40;;;;;;;18.50;11.88;;;;;;;14.44;100.00;101543.69;4911720;29;20070;-76
2023/09/16 03:07:10;;;;;;;14.95;11.85;;;;;;;14.43;100.00;101550.78;4897045;29;20048;-77
2023/09/16 03:09:38;;;;;;;15.88;11.27;;;;;;;14.41;100.00;101543.72;4900220;29;20044;-77
2023/09/16 03:12:08;;;;;;;14.93;12.57;;;;;;;14.39;100.00;101542.84;4882402;29;20418;-77
2023/09/16 03:14:36;;;;;;;13.05;11.18;;;;;;;14.38;100.00;101535.75;4894640;29;20067;-77
2023/09/16 03:17:04;;;;;;;13.30;11.90;;;;;;;14.37;100.00;101536.66;4859222;29;20426;-77
2023/09/16 03:19:32;;;;;;;15.18;12.18;;;;;;;14.36;100.00;101538.41;4867523;29;20053;-78
2023/09/16 03:22:00;;;;;;;14.05;11.80;;;;;;;14.35;100.00;101541.97;4892664;29;20048;-77
2023/09/16 03:24:29;;;;;;;15.32;12.27;;;;;;;14.35;100.00;101527.84;4871233;29;20104;-78
2023/09/16 03:26:56;;;;;;;15.30;12.63;;;;;;;14.35;100.00;101544.63;4903237;29;20519;-78
2023/09/16 03:29:24;;;;;;;12.35;11.15;;;;;;;14.34;100.00;101531.34;4896100;29;20055;-76
2023/09/16 03:31:53;;;;;;;17.13;12.18;;;;;;;14.32;100.00;101526.06;4869849;29;20376;-76
2023/09/16 03:34:21;;;;;;;15.73;12.68;;;;;;;14.31;100.00;101532.25;4932988;28;20048;-77
2023/09/16 03:36:48;;;;;;;13.93;12.48;;;;;;;14.30;100.00;101530.47;4913123;29;20048;-77
2023/09/16 03:39:16;;;;;;;13.95;11.75;;;;;;;14.29;100.00;101527.81;4933099;29;20044;-77
2023/09/16 03:41:44;;;;;;;14.18;12.15;;;;;;;14.29;100.00;101528.72;4928994;29;20047;-77
2023/09/16 03:44:15;;;;;;;16.08;11.98;;;;;;;14.28;100.00;101524.28;4929473;29;20055;-77
2023/09/16 03:46:43;;;;;;;14.88;11.43;;;;;;;14.28;100.00;101528.72;4956222;28;20055;-76
2023/09/16 03:49:11;;;;;;;12.63;11.32;;;;;;;14.27;100.00;101525.16;4885241;29;20075;-77
2023/09/16 03:51:40;;;;;;;14.43;11.85;;;;;;;14.26;100.00;101531.38;4962327;28;20922;-76
2023/09/16 03:54:11;;;;;;;16.65;12.88;;;;;;;14.27;100.00;101526.94;4941901;29;20055;-77
2023/09/16 03:56:38;;;;;;;14.43;11.68;;;;;;;14.26;100.00;101522.53;4954895;28;20062;-77
2023/09/16 03:59:09;;;;;;;15.00;13.27;;;;;;;14.27;100.00;101525.16;4930911;29;20039;-79
2023/09/16 04:01:37;;;;;;;22.52;13.80;;;;;;;14.28;100.00;101523.41;4870166;29;20413;-77
2023/09/16 04:04:07;;;;;;;15.05;13.00;;;;;;;14.27;100.00;101522.50;4879743;29;20482;-77
2023/09/16 04:06:34;;;;;;;19.20;13.40;;;;;;;14.27;100.00;101521.63;4943474;29;20062;-77
2023/09/16 04:09:02;;;;;;;13.88;12.55;;;;;;;14.28;100.00;101523.41;4933908;29;20055;-77
2023/09/16 04:11:29;;;;;;;18.98;14.18;;;;;;;14.27;100.00;101522.50;4900885;29;20922;-78
2023/09/16 04:13:57;;;;;;;14.82;12.40;;;;;;;14.27;100.00;101519.88;4931441;29;20059;-78
2023/09/16 04:16:25;;;;;;;13.80;12.13;;;;;;;14.27;100.00;101519.88;4910885;29;20054;-78
2023/09/16 04:18:55;;;;;;;17.25;12.38;;;;;;;14.28;100.00;101524.28;4884318;29;20051;-78
2023/09/16 04:21:24;;;;;;;13.85;12.30;;;;;;;14.30;100.00;101513.69;4910983;29;20525;-78
2023/09/16 04:23:52;;;;;;;15.23;12.80;;;;;;;14.30;100.00;101525.16;4919803;29;20055;-78
2023/09/16 04:26:20;;;;;;;16.08;12.63;;;;;;;14.31;100.00;101523.41;4917343;29;20067;-78
2023/09/16 04:28:47;;;;;;;15.95;13.13;;;;;;;14.31;100.00;101519.00;4945207;29;20421;-78
2023/09/16 04:31:18;;;;;;;14.82;12.05;;;;;;;14.31;100.00;101515.44;4925981;29;20106;-78
2023/09/16 04:33:45;;;;;;;14.20;12.70;;;;;;;14.31;100.00;101524.31;4897064;28;20047;-78
2023/09/16 04:36:13;;;;;;;14.27;12.88;;;;;;;14.30;100.00;101519.88;4943211;28;20055;-78
2023/09/16 04:38:41;;;;;;;14.10;12.60;;;;;;;14.30;100.00;101519.88;4910161;29;20973;-77
2023/09/16 04:41:09;;;;;;;15.50;13.27;;;;;;;14.29;100.00;101518.13;4912662;29;20043;-78
2023/09/16 04:43:37;;;;;;;17.13;13.15;;;;;;;14.28;100.00;101518.13;4889662;29;20075;-77
2023/09/16 04:46:06;;;;;;;14.75;12.38;;;;;;;14.24;100.00;101511.94;4912885;29;20051;-78
2023/09/16 04:48:41;;;;;;;14.07;12.20;;;;;;;14.22;100.00;101513.72;4913477;29;20058;-78
2023/09/16 04:51:10;;;;;;;15.82;12.93;;;;;;;14.19;100.00;101517.22;4858992;29;20410;-78
2023/09/16 04:53:38;;;;;;;15.65;13.73;;;;;;;14.14;100.00;101513.72;4913438;29;20056;-78
2023/09/16 04:56:05;;;;;;;14.63;12.55;;;;;;;14.12;100.00;101517.22;4904972;29;20072;-78
2023/09/16 04:58:37;;;;;;;17.02;13.85;;;;;;;14.09;100.00;101514.59;4902316;29;20052;-78
2023/09/16 05:01:05;;;;;;;15.52;13.48;;;;;;;14.07;100.00;101516.38;4897636;29;20054;-78
2023/09/16 05:03:33;;;;;;;21.50;13.23;;;;;;;14.04;100.00;101517.25;4910664;29;20048;-78
2023/09/16 05:06:01;;;;;;;17.48;13.07;;;;;;;14.02;100.00;101522.53;4868298;29;20052;-78
2023/09/16 05:08:32;;;;;;;15.32;12.60;;;;;;;13.98;100.00;101520.78;4943583;29;20051;-77
2023/09/16 05:11:01;;;;;;;17.92;13.65;;;;;;;13.97;100.00;101521.69;4888746;29;20043;-79
2023/09/16 05:13:35;;;;;;;14.50;13.00;;;;;;;13.95;100.00;101526.09;4901848;29;20055;-77
2023/09/16 05:16:03;;;;;;;16.13;13.18;;;;;;;13.94;100.00;101526.97;4932940;29;20052;-77
2023/09/16 05:18:31;;;;;;;15.48;12.13;;;;;;;13.94;100.00;101526.09;4954032;28;20048;-77
2023/09/16 05:20:59;;;;;;;15.43;12.73;;;;;;;13.91;100.00;101523.44;4872576;29;20055;-77
2023/09/16 05:23:29;;;;;;;14.40;11.90;;;;;;;13.89;100.00;101519.91;4910558;29;20051;-79
2023/09/16 05:25:57;;;;;;;15.10;13.52;;;;;;;13.87;100.00;101519.88;4890957;29;20056;-76
2023/09/16 05:28:32;;;;;;;14.80;11.68;;;;;;;13.87;100.00;101517.25;4901780;29;20054;-77
2023/09/16 05:31:03;;;;;;;14.95;11.93;;;;;;;13.88;100.00;101515.50;4914804;29;20514;-79
2023/09/16 05:33:34;;;;;;;16.40;13.32;;;;;;;13.86;100.00;101517.25;4910775;29;20058;-78
2023/09/16 05:36:03;;;;;;;15.60;13.20;;;;;;;13.86;100.00;101511.97;4893712;29;20380;-77
2023/09/16 05:38:32;;;;;;;16.85;13.40;;;;;;;13.86;100.00;101520.78;4903534;29;20058;-79
2023/09/16 05:41:00;;;;;;;17.17;13.75;;;;;;;13.88;100.00;101518.16;4905017;29;20063;-77
2023/09/16 05:43:28;;;;;;;16.63;13.65;;;;;;;13.88;100.00;101508.44;4894946;29;20058;-78
2023/09/16 05:45:55;;;;;;;18.20;13.43;;;;;;;13.88;100.00;101520.78;4934604;29;20058;-77
2023/09/16 05:48:24;;;;;;;15.52;13.05;;;;;;;13.90;100.00;101519.03;4924135;29;20051;-76
2023/09/16 05:51:00;;;;;;;16.48;13.50;;;;;;;13.92;100.00;101522.56;4896994;29;20126;-77
2023/09/16 05:53:31;;;;;;;17.13;13.23;;;;;;;13.92;100.00;101518.13;4919124;28;20052;-77
2023/09/16 05:56:08;;;;;;;14.82;13.20;;;;;;;13.94;100.00;101523.44;4946725;28;20051;-77
2023/09/16 05:58:41;;;;;;;18.33;13.00;;;;;;;13.95;100.00;101517.25;4928156;29;20063;-77
2023/09/16 06:01:08;;;;;;;16.55;13.43;;;;;;;13.96;100.00;101519.91;4917125;29;20044;-76
2023/09/16 06:03:36;;;;;;;17.13;12.05;;;;;;;14.00;100.00;101526.94;4893499;29;20059;-76
2023/09/16 06:06:04;;;;;;;14.90;12.68;;;;;;;14.04;100.00;101530.50;4939505;29;20506;-76
2023/09/16 06:08:35;;;;;;;20.10;12.68;;;;;;;14.07;100.00;101526.97;4873220;29;21284;-76
2023/09/16 06:11:02;;;;;;;15.10;12.63;;;;;;;14.08;100.00;101526.94;4938458;29;20047;-77
2023/09/16 06:13:30;;;;;;;15.15;12.85;;;;;;;14.11;100.00;101523.44;4886666;29;20083;-77
2023/09/16 06:15:57;;;;;;;15.85;12.82;;;;;;;14.14;100.00;101524.31;4900649;29;20404;-76
2023/09/16 06:18:27;;;;;;;13.95;12.35;;;;;;;14.19;100.00;101529.59;4926280;29;20067;-76
2023/09/16 06:20:55;;;;;;;16.38;13.02;;;;;;;14.23;100.00;101529.63;4935483;29;20063;-76
2023/09/16 06:23:25;;;;;;;17.63;13.32;;;;;;;14.29;100.00;101533.13;4866558;29;20051;-76
2023/09/16 06:25:53;;;;;;;;;;;;;;;14.33;100.00;101530.47;4887725;29;20056;-76
2023/09/16 06:28:21;;;;;;;17.65;12.98;;;;;;;14.39;100.00;101537.53;4917893;29;20357;-77
2023/09/16 06:30:49;;;;;;;16.58;12.82;;;;;;;14.42;100.00;101527.81;4907330;29;20407;-77
2023/09/16 06:33:18;;;;;;;16.52;12.70;;;;;;;14.48;100.00;101529.56;4923515;29;20047;-77
2023/09/16 06:35:46;;;;;;;15.65;12.30;;;;;;;14.53;100.00;101533.06;4940999;29;20071;-77
2023/09/16 06:38:13;;;;;;;16.70;12.63;;;;;;;14.57;100.00;101529.59;4888694;29;20060;-78
2023/09/16 06:40:41;;;;;;;15.20;12.45;;;;;;;14.65;100.00;101541.94;4866056;29;20051;-78
2023/09/16 06:43:09;;;;;;;20.02;12.52;;;;;;;14.71;100.00;101536.63;4916235;29;20395;-77
2023/09/16 06:45:39;;;;;;;14.80;13.05;;;;;;;14.81;100.00;101539.22;4866334;29;20067;-78
2023/09/16 06:48:08;;;;;;;18.90;11.82;;;;;;;14.91;100.00;101540.06;4923746;29;20048;-78
2023/09/16 06:50:36;;;;;;;13.40;10.93;;;;;;;15.07;100.00;101540.91;4909912;29;20533;-77
2023/09/16 06:53:06;;;;;;;14.45;10.90;;;;;;;15.26;100.00;101540.84;4869701;29;20055;-77
2023/09/16 06:55:34;;;;;;;15.05;10.93;;;;;;;15.51;100.00;101531.81;4852626;29;20070;-77
2023/09/16 06:58:04;;;;;;;13.45;10.85;;;;;;;15.90;100.00;101531.59;4921394;29;20048;-78
2023/09/16 07:00:49;;;;;;;13.32;10.32;;;;;;;16.46;100.00;101526.63;4910573;29;20067;-77
2023/09/16 07:03:18;;;;;;;15.43;10.70;;;;;;;16.78;100.00;101523.59;4906684;29;20047;-77
2023/09/16 07:05:47;;;;;;;14.63;11.07;;;;;;;17.05;100.00;101522.44;4907386;29;20062;-77
2023/09/16 07:08:17;;;;;;;11.73;9.57;;;;;;;17.32;100.00;101526.50;4909543;29;20051;-77
2023/09/16 07:10:46;;;;;;;12.15;9.77;;;;;;;17.50;100.00;101522.72;4868436;29;20494;-77
2023/09/16 07:13:13;;;;;;;11.07;9.95;;;;;;;17.74;100.00;101524.09;4893515;29;20067;-77
2023/09/16 07:15:41;;;;;;;10.60;8.75;;;;;;;17.98;100.00;101515.78;4902415;29;20047;-77
2023/09/16 07:18:08;;;;;;;11.88;9.25;;;;;;;18.26;100.00;101518.81;4916766;29;20549;-78
2023/09/16 07:20:36;;;;;;;11.65;9.25;;;;;;;18.54;100.00;101512.97;4900939;29;20064;-77
2023/09/16 07:23:03;;;;;;;9.80;8.10;;;;;;;18.88;100.00;101507.88;4865537;29;20051;-77
2023/09/16 07:25:31;;;;;;;9.73;8.32;;;;;;;19.19;100.00;101517.91;4840156;29;20052;-77
2023/09/16 07:27:58;;;;;;;9.18;7.88;;;;;;;19.50;100.00;101517.22;4906966;29;20067;-78
2023/09/16 07:30:26;;;;;;;12.18;8.48;;;;;;;19.76;100.00;101514.81;4901739;29;20047;-77
2023/09/16 07:32:53;;;;;;;11.55;8.27;;;;;;;20.07;100.00;101519.38;4895663;29;20833;-77
2023/09/16 07:35:21;;;;;;;9.38;7.57;;;;;;;20.40;100.00;101506.94;4923932;29;20439;-78
2023/09/16 07:37:49;;;;;;;7.50;6.43;;;;;;;20.70;100.00;101520.41;4909259;29;20043;-77
2023/09/16 07:40:17;;;;;;;7.80;7.00;;;;;;;21.00;100.00;101521.34;4883930;29;20058;-77
2023/09/16 07:42:44;;;;;;;8.25;7.03;;;;;;;21.22;100.00;101515.31;4869344;29;20462;-78
2023/09/16 07:45:12;;;;;;;10.73;6.97;;;;;;;21.41;100.00;101529.03;4913321;29;20043;-77
2023/09/16 07:47:39;;;;;;;8.85;7.32;;;;;;;21.50;100.00;101530.59;4914988;29;20406;-77
2023/09/16 07:50:07;;;;;;;8.02;6.72;;;;;;;21.42;100.00;101526.31;4923777;29;20055;-77
2023/09/16 07:52:35;;;;;;;7.18;6.47;;;;;;;21.22;100.00;101534.06;4925356;29;20051;-77
2023/09/16 07:55:02;;;;;;;11.25;7.93;;;;;;;21.01;100.00;101528.44;4917461;29;20126;-77
2023/09/16 07:57:30;;;;;;;8.18;7.35;;;;;;;20.75;100.00;101537.22;4849822;29;20040;-77
2023/09/16 07:59:58;;;;;;;8.27;7.10;;;;;;;20.52;100.00;101536.97;4914460;28;20066;-77
2023/09/16 08:02:38;;;;;;;9.10;7.75;;;;;;;20.30;100.00;101540.19;4888905;29;20556;-78
2023/09/16 08:05:06;;;;;;;10.43;7.88;;;;;;;20.19;100.00;101537.81;4959637;28;20042;-77
2023/09/16 08:07:34;;;;;;;7.50;6.80;;;;;;;20.35;100.00;101540.09;4918814;29;20717;-77
2023/09/16 08:10:02;;;;;;;10.10;7.00;;;;;;;20.63;100.00;101541.13;4946158;28;20066;-79
2023/09/16 08:12:30;;;;;;;10.20;7.50;;;;;;;20.94;100.00;101540.25;4842429;28;20047;-78
2023/09/16 08:14:59;;;;;;;8.82;6.50;;;;;;;21.20;100.00;101535.94;4929072;29;20078;-80
2023/09/16 08:17:26;;;;;;;8.65;6.90;;;;;;;21.35;100.00;101545.31;4910437;29;20066;-79
2023/09/16 08:19:54;;;;;;;7.80;6.70;;;;;;;21.30;100.00;101550.78;4914364;29;20050;-79
2023/09/16 08:22:21;;;;;;;22.30;8.13;;;;;;;21.12;100.00;101544.19;4927234;28;20058;-79
2023/09/16 08:24:50;;;;;;;14.23;8.50;;;;;;;20.92;100.00;101546.56;4890401;29;20515;-79
2023/09/16 08:27:19;;;;;;;9.60;7.45;;;;;;;20.74;100.00;101548.00;4884654;29;20051;-79
2023/09/16 08:29:49;;;;;;;12.48;8.43;;;;;;;20.56;100.00;101543.97;4931248;29;20055;-81
2023/09/16 08:32:17;;;;;;;8.90;7.57;;;;;;;20.36;100.00;101549.84;4923702;29;20513;-80
2023/09/16 08:34:45;;;;;;;10.27;8.32;;;;;;;20.22;100.00;101551.09;4927185;28;20062;-79
2023/09/16 08:37:12;;;;;;;9.63;8.68;;;;;;;20.13;100.00;101558.50;4923988;29;20056;-80
2023/09/16 08:39:39;;;;;;;12.70;9.00;;;;;;;20.01;100.00;101555.19;4943302;28;20469;-79
2023/09/16 08:42:28;;;;;;;10.95;9.18;;;;;;;19.97;100.00;101561.56;4868278;29;20101;-82
2023/09/16 08:44:59;;;;;;;9.90;8.90;;;;;;;19.98;100.00;101557.06;4948178;28;20050;-82
2023/09/16 08:47:39;;;;;;;10.43;9.43;;;;;;;20.03;100.00;101555.16;4925507;28;20051;-84
2023/09/16 08:50:09;;;;;;;10.27;9.25;;;;;;;20.06;100.00;101549.75;4945716;28;20051;-79
2023/09/16 08:52:48;;;;;;;11.23;8.73;;;;;;;20.04;100.00;101547.13;4928930;29;20057;-78
2023/09/16 08:55:18;;;;;;;13.98;9.35;;;;;;;20.02;100.00;101546.28;4948938;28;20048;-84
2023/09/16 08:58:09;;;;;;;9.20;8.38;;;;;;;20.14;100.00;101541.53;4870688;29;20067;-80
2023/09/16 09:00:37;;;;;;;11.10;8.75;;;;;;;20.26;100.00;101543.88;4946252;29;20578;-80
2023/09/16 09:03:06;;;;;;;9.93;7.78;;;;;;;20.37;100.00;101547.16;4935108;28;20054;-79
2023/09/16 09:05:35;;;;;;;11.05;8.45;;;;;;;20.48;100.00;101540.66;4919594;29;20043;-79
2023/09/16 09:08:09;;;;;;;9.65;7.70;;;;;;;20.55;100.00;101548.47;4949028;28;20044;-78
2023/09/16 09:10:37;;;;;;;8.05;7.20;;;;;;;20.63;100.00;101545.59;4942883;28;20147;-77
2023/09/16 09:13:06;;;;;;;7.68;6.97;;;;;;;20.73;100.00;101546.22;4908392;28;20485;-77
2023/09/16 09:15:37;;;;;;;10.98;7.40;;;;;;;20.82;100.00;101548.66;4928201;29;20052;-80
2023/09/16 09:18:06;;;;;;;12.02;8.65;;;;;;;20.91;100.00;101552.88;4921241;29;20058;-78
2023/09/16 09:20:35;;;;;;;9.55;8.57;;;;;;;20.99;100.00;101551.72;4922450;28;20055;-75
2023/09/16 09:23:03;;;;;;;11.32;7.75;;;;;;;21.11;100.00;101557.63;4957254;28;20529;-76
2023/09/16 09:25:36;;;;;;;10.48;7.65;;;;;;;21.27;100.00;101545.53;4958740;28;20046;-76
2023/09/16 09:28:04;;;;;;;9.20;7.47;;;;;;;21.37;100.00;101546.13;4898929;28;20047;-76
2023/09/16 09:30:33;;;;;;;7.97;7.18;;;;;;;21.45;100.00;101552.16;4943286;29;20078;-80
2023/09/16 09:33:00;;;;;;;11.50;7.40;;;;;;;21.54;100.00;101551.00;4873146;29;20047;-77
2023/09/16 09:35:30;;;;;;;9.57;7.03;;;;;;;21.61;100.00;101552.56;4911382;29;20047;-77
2023/09/16 09:37:58;;;;;;;7.32;6.60;;;;;;;21.70;100.00;101549.59;4931684;29;20425;-77
2023/09/16 09:40:28;;;;;;;9.27;7.22;;;;;;;21.76;100.00;101554.75;4911500;29;20051;-77
2023/09/16 09:42:56;;;;;;;13.27;8.88;;;;;;;21.80;100.00;101551.06;4961195;28;20055;-76
2023/09/16 09:45:25;;;;;;;14.93;9.02;;;;;;;21.87;100.00;101556.22;4897103;28;20058;-76
2023/09/16 09:47:53;;;;;;;11.55;7.95;;;;;;;21.86;100.00;101546.41;4945139;28;20055;-77
2023/09/16 09:50:22;;;;;;;9.68;7.00;;;;;;;21.88;100.00;101552.59;4907109;29;20620;-76
2023/09/16 09:52:54;;;;;;;8.93;7.15;;;;;;;21.86;100.00;101541.91;4940177;28;20835;-76
2023/09/16 09:55:28;;;;;;;8.50;7.60;;;;;;;21.88;100.00;101536.50;4943489;29;20442;-80
2023/09/16 09:57:56;;;;;;;8.13;7.35;;;;;;;21.84;100.00;101538.41;4943459;29;20083;-81
2023/09/16 10:00:24;;;;;;;9.77;7.93;;;;;;;21.81;100.00;101543.88;4863235;28;20058;-77
2023/09/16 10:02:52;;;;;;;9.40;8.27;;;;;;;21.77;100.00;101536.84;4929574;29;20493;-75
2023/09/16 10:05:22;;;;;;;11.25;8.18;;;;;;;21.79;100.00;101551.09;4884737;29;20051;-76
2023/09/16 10:07:51;;;;;;;11.20;8.18;;;;;;;21.83;100.00;101546.50;4914374;29;20399;-75
2023/09/16 10:10:21;;;;;;;13.40;7.95;;;;;;;21.84;100.00;101550.97;4944654;29;20047;-76
2023/09/16 10:12:54;;;;;;;9.98;8.30;;;;;;;21.84;100.00;101549.16;4927153;29;20062;-76
2023/09/16 10:15:24;;;;;;;9.18;7.55;;;;;;;21.79;100.00;101551.97;4898840;28;20039;-76
2023/09/16 10:17:52;;;;;;;8.77;7.30;;;;;;;21.76;100.00;101552.09;4946121;28;20043;-77
2023/09/16 10:20:21;;;;;;;8.90;7.97;;;;;;;21.77;100.00;101543.09;4922099;29;20054;-75
2023/09/16 10:22:50;;;;;;;8.85;7.93;;;;;;;21.80;100.00;101548.38;4893470;29;20062;-75
2023/09/16 10:25:18;;;;;;;9.75;8.32;;;;;;;21.78;100.00;101546.66;4897473;29;20051;-76
2023/09/16 10:28:05;;;;;;;9.15;7.95;;;;;;;21.75;100.00;101544.94;4913144;29;20054;-75
2023/09/16 10:30:35;;;;;;;8.55;7.10;;;;;;;21.78;100.00;101552.91;4911421;28;20046;-75
2023/09/16 10:33:06;;;;;;;8.43;7.03;;;;;;;21.86;100.00;101547.28;4930896;29;20050;-77
2023/09/16 10:35:41;;;;;;;7.78;6.40;;;;;;;21.96;100.00;101547.84;4936098;28;20054;-77
2023/09/16 10:38:11;;;;;;;8.50;5.65;;;;;;;21.99;100.00;101548.63;4903389;29;20498;-75
2023/09/16 10:40:39;;;;;;;7.43;4.10;;;;;;;22.02;100.00;101544.97;4932506;29;20054;-77
2023/09/16 10:43:07;;;;;;;6.38;5.03;;;;;;;22.08;100.00;101535.81;4908372;29;20070;-78
2023/09/16 10:45:37;;;;;;;8.50;4.60;;;;;;;22.16;100.00;101542.69;4931666;29;20066;-79
2023/09/16 10:48:05;;;;;;;5.90;4.20;;;;;;;22.25;100.00;101543.31;4881477;29;20918;-80
2023/09/16 10:50:36;;;;;;;10.32;4.65;;;;;;;22.27;100.00;101537.00;4914666;29;20090;-77
2023/09/16 10:53:24;;;;;;;8.35;4.80;;;;;;;22.33;100.00;101536.78;4916090;28;20528;-77
2023/09/16 10:56:30;;;;;;;6.80;4.28;;;;;;;22.29;98.29;101536.97;4927517;28;20935;-79
2023/09/16 10:59:10;;;;;;;18.40;7.35;;;;;;;22.30;99.52;101528.81;4905566;29;20055;-80
2023/09/16 11:02:01;;;;;;;9.57;5.70;;;;;;;22.35;99.38;101520.63;4918811;28;20051;-77
2023/09/16 11:04:29;;;;;;;6.63;5.10;;;;;;;22.32;98.21;101520.72;4935760;28;20062;-77
2023/09/16 11:06:58;;;;;;;8.77;4.57;;;;;;;22.33;98.56;101512.63;4940194;28;20047;-76
2023/09/16 11:09:27;;;;;;;5.28;4.38;;;;;;;22.36;98.39;101515.22;4931731;29;20467;-76
2023/09/16 11:11:56;;;;;;;5.78;4.57;;;;;;;22.40;99.00;101515.97;4942415;29;20054;-76
2023/09/16 11:14:24;;;;;;;9.93;5.00;;;;;;;22.48;98.80;101513.88;4927790;29;20051;-76
2023/09/16 11:16:52;;;;;;;6.53;4.38;;;;;;;22.53;97.84;101506.53;4935485;29;20058;-76
2023/09/16 11:19:21;;;;;;;7.40;5.13;;;;;;;22.60;97.49;101507.19;4889388;28;20051;-77